sensor_id;sensor_type;location;lat;lon;timestamp;pressure;altitude;pressure_sealevel;temperature;humidity
66543;BME280;53395;37.360;-122.046;2022-07-04T00:00:46;101039.03;;;21.18;57.12
66543;BME280;53395;37.360;-122.046;2022-07-04T00:03:12;101032.91;;;21.01;56.89
66543;BME280;53395;37.360;-122.046;2022-07-04T00:05:38;101027.34;;;20.90;58.69
66543;BME280;53395;37.360;-122.046;2022-07-04T00:08:05;101021.50;;;20.83;58.41
66543;BME280;53395;37.360;-122.046;2022-07-04T00:10:30;101026.91;;;20.98;58.44
66543;BME280;53395;37.360;-122.046;2022-07-04T00:12:57;101025.25;;;20.65;58.62
66543;BME280;53395;37.360;-122.046;2022-07-04T00:15:24;101022.72;;;20.62;58.95
66543;BME280;53395;37.360;-122.046;2022-07-04T00:17:50;101024.06;;;21.17;57.03
66543;BME280;53395;37.360;-122.046;2022-07-04T00:20:17;101021.56;;;21.14;57.32
66543;BME280;53395;37.360;-122.046;2022-07-04T00:22:44;101023.13;;;20.54;58.19
66543;BME280;53395;37.360;-122.046;2022-07-04T00:25:10;101008.59;;;20.93;56.84
66543;BME280;53395;37.360;-122.046;2022-07-04T00:27:36;101023.25;;;20.03;59.76
66543;BME280;53395;37.360;-122.046;2022-07-04T00:30:03;101017.00;;;21.16;57.70
66543;BME280;53395;37.360;-122.046;2022-07-04T00:32:30;101025.88;;;19.88;60.55
66543;BME280;53395;37.360;-122.046;2022-07-04T00:34:56;101003.63;;;20.39;59.37
66543;BME280;53395;37.360;-122.046;2022-07-04T00:37:25;101008.06;;;20.86;58.46
66543;BME280;53395;37.360;-122.046;2022-07-04T00:39:51;101006.41;;;21.00;58.27
66543;BME280;53395;37.360;-122.046;2022-07-04T00:42:20;101007.19;;;20.86;55.98
66543;BME280;53395;37.360;-122.046;2022-07-04T00:44:47;101008.63;;;21.07;55.74
66543;BME280;53395;37.360;-122.046;2022-07-04T00:47:13;101008.44;;;21.10;56.16
66543;BME280;53395;37.360;-122.046;2022-07-04T00:49:39;101001.97;;;21.00;54.99
66543;BME280;53395;37.360;-122.046;2022-07-04T00:52:06;100990.09;;;20.28;57.37
66543;BME280;53395;37.360;-122.046;2022-07-04T00:54:33;100997.38;;;20.72;56.13
66543;BME280;53395;37.360;-122.046;2022-07-04T00:57:00;100994.84;;;20.05;57.55
66543;BME280;53395;37.360;-122.046;2022-07-04T00:59:27;101009.69;;;20.25;57.10
66543;BME280;53395;37.360;-122.046;2022-07-04T01:01:54;101007.25;;;20.70;55.68
66543;BME280;53395;37.360;-122.046;2022-07-04T01:04:20;100998.09;;;21.06;52.09
66543;BME280;53395;37.360;-122.046;2022-07-04T01:06:47;101000.59;;;20.45;52.69
66543;BME280;53395;37.360;-122.046;2022-07-04T01:09:13;100995.88;;;20.51;53.40
66543;BME280;53395;37.360;-122.046;2022-07-04T01:11:39;100997.19;;;20.43;54.92
66543;BME280;53395;37.360;-122.046;2022-07-04T01:14:05;101000.34;;;20.18;54.47
66543;BME280;53395;37.360;-122.046;2022-07-04T01:16:32;101001.09;;;21.00;52.57
66543;BME280;53395;37.360;-122.046;2022-07-04T01:18:58;100994.53;;;20.43;53.80
66543;BME280;53395;37.360;-122.046;2022-07-04T01:21:25;101001.88;;;20.22;54.03
66543;BME280;53395;37.360;-122.046;2022-07-04T01:23:51;101010.50;;;20.59;53.60
66543;BME280;53395;37.360;-122.046;2022-07-04T01:26:18;101010.72;;;20.23;53.89
66543;BME280;53395;37.360;-122.046;2022-07-04T01:28:44;101006.00;;;20.28;53.02
66543;BME280;53395;37.360;-122.046;2022-07-04T01:31:11;101008.41;;;20.48;53.22
66543;BME280;53395;37.360;-122.046;2022-07-04T01:33:38;101021.66;;;19.83;54.62
66543;BME280;53395;37.360;-122.046;2022-07-04T01:36:04;101015.13;;;20.06;53.63
66543;BME280;53395;37.360;-122.046;2022-07-04T01:38:30;101023.47;;;19.99;53.11
66543;BME280;53395;37.360;-122.046;2022-07-04T01:40:56;101019.19;;;19.80;54.24
66543;BME280;53395;37.360;-122.046;2022-07-04T01:43:22;101012.84;;;19.13;56.22
66543;BME280;53395;37.360;-122.046;2022-07-04T01:45:48;101018.53;;;19.75;54.94
66543;BME280;53395;37.360;-122.046;2022-07-04T01:48:14;101024.38;;;19.47;55.97
66543;BME280;53395;37.360;-122.046;2022-07-04T01:50:41;101026.38;;;19.26;56.58
66543;BME280;53395;37.360;-122.046;2022-07-04T01:53:07;101023.00;;;19.05;57.67
66543;BME280;53395;37.360;-122.046;2022-07-04T01:55:33;101027.59;;;19.54;56.24
66543;BME280;53395;37.360;-122.046;2022-07-04T01:57:59;101028.06;;;19.44;57.91
66543;BME280;53395;37.360;-122.046;2022-07-04T02:00:28;101036.88;;;19.45;57.73
66543;BME280;53395;37.360;-122.046;2022-07-04T02:03:13;101034.38;;;19.42;57.61
66543;BME280;53395;37.360;-122.046;2022-07-04T02:05:39;101034.47;;;19.40;57.14
66543;BME280;53395;37.360;-122.046;2022-07-04T02:08:05;101032.44;;;19.46;57.53
66543;BME280;53395;37.360;-122.046;2022-07-04T02:10:33;101031.22;;;18.99;58.47
66543;BME280;53395;37.360;-122.046;2022-07-04T02:13:00;101037.47;;;18.41;61.75
66543;BME280;53395;37.360;-122.046;2022-07-04T02:15:28;101037.03;;;18.88;59.90
66543;BME280;53395;37.360;-122.046;2022-07-04T02:17:55;101043.31;;;19.05;60.73
66543;BME280;53395;37.360;-122.046;2022-07-04T02:20:21;101044.94;;;19.07;60.43
66543;BME280;53395;37.360;-122.046;2022-07-04T02:22:47;101039.41;;;18.56;62.31
66543;BME280;53395;37.360;-122.046;2022-07-04T02:25:13;101048.56;;;18.49;61.28
66543;BME280;53395;37.360;-122.046;2022-07-04T02:27:40;101041.06;;;18.78;61.03
66543;BME280;53395;37.360;-122.046;2022-07-04T02:30:07;101043.59;;;18.04;63.17
66543;BME280;53395;37.360;-122.046;2022-07-04T02:32:35;101045.97;;;18.10;63.23
66543;BME280;53395;37.360;-122.046;2022-07-04T02:35:02;101046.69;;;17.72;63.51
66543;BME280;53395;37.360;-122.046;2022-07-04T02:37:29;101034.94;;;17.80;64.06
66543;BME280;53395;37.360;-122.046;2022-07-04T02:39:55;101047.38;;;17.57;65.04
66543;BME280;53395;37.360;-122.046;2022-07-04T02:42:21;101058.78;;;17.37;66.32
66543;BME280;53395;37.360;-122.046;2022-07-04T02:44:47;101058.91;;;17.34;65.99
66543;BME280;53395;37.360;-122.046;2022-07-04T02:47:14;101055.50;;;17.52;65.65
66543;BME280;53395;37.360;-122.046;2022-07-04T02:49:41;101052.97;;;17.07;67.96
66543;BME280;53395;37.360;-122.046;2022-07-04T02:52:07;101050.94;;;17.36;67.41
66543;BME280;53395;37.360;-122.046;2022-07-04T02:54:34;101059.41;;;16.78;69.02
66543;BME280;53395;37.360;-122.046;2022-07-04T02:57:00;101052.06;;;17.08;67.89
66543;BME280;53395;37.360;-122.046;2022-07-04T02:59:26;101055.81;;;16.80;69.03
66543;BME280;53395;37.360;-122.046;2022-07-04T03:01:52;101065.09;;;16.67;69.46
66543;BME280;53395;37.360;-122.046;2022-07-04T03:04:19;101071.66;;;16.57;69.83
66543;BME280;53395;37.360;-122.046;2022-07-04T03:06:45;101071.59;;;16.35;70.86
66543;BME280;53395;37.360;-122.046;2022-07-04T03:09:11;101064.75;;;16.53;69.90
66543;BME280;53395;37.360;-122.046;2022-07-04T03:11:37;101072.59;;;16.32;70.91
66543;BME280;53395;37.360;-122.046;2022-07-04T03:14:04;101071.19;;;16.22;71.33
66543;BME280;53395;37.360;-122.046;2022-07-04T03:16:30;101074.94;;;16.40;71.09
66543;BME280;53395;37.360;-122.046;2022-07-04T03:18:56;101073.53;;;16.30;71.22
66543;BME280;53395;37.360;-122.046;2022-07-04T03:21:22;101075.13;;;16.10;71.95
66543;BME280;53395;37.360;-122.046;2022-07-04T03:23:48;101077.19;;;16.02;72.37
66543;BME280;53395;37.360;-122.046;2022-07-04T03:26:29;101074.47;;;16.03;71.91
66543;BME280;53395;37.360;-122.046;2022-07-04T03:28:56;101070.09;;;15.79;72.48
66543;BME280;53395;37.360;-122.046;2022-07-04T03:31:24;101080.97;;;15.68;72.78
66543;BME280;53395;37.360;-122.046;2022-07-04T03:33:50;101071.94;;;15.77;73.23
66543;BME280;53395;37.360;-122.046;2022-07-04T03:36:17;101084.69;;;15.62;73.83
66543;BME280;53395;37.360;-122.046;2022-07-04T03:38:43;101089.94;;;15.62;74.17
66543;BME280;53395;37.360;-122.046;2022-07-04T03:41:09;101090.22;;;15.55;74.28
66543;BME280;53395;37.360;-122.046;2022-07-04T03:43:36;101087.19;;;15.40;74.87
66543;BME280;53395;37.360;-122.046;2022-07-04T03:46:02;101096.03;;;15.38;75.44
66543;BME280;53395;37.360;-122.046;2022-07-04T03:48:28;101096.13;;;15.35;75.71
66543;BME280;53395;37.360;-122.046;2022-07-04T03:50:54;101098.09;;;15.28;76.48
66543;BME280;53395;37.360;-122.046;2022-07-04T03:53:21;101103.75;;;15.44;75.73
66543;BME280;53395;37.360;-122.046;2022-07-04T03:55:47;101097.28;;;15.26;76.65
66543;BME280;53395;37.360;-122.046;2022-07-04T03:58:13;101101.16;;;15.14;77.07
66543;BME280;53395;37.360;-122.046;2022-07-04T04:00:40;101103.66;;;15.19;76.86
66543;BME280;53395;37.360;-122.046;2022-07-04T04:03:08;101098.78;;;15.07;77.10
66543;BME280;53395;37.360;-122.046;2022-07-04T04:05:54;101101.28;;;15.11;76.39
66543;BME280;53395;37.360;-122.046;2022-07-04T04:08:20;101105.94;;;15.03;76.97
66543;BME280;53395;37.360;-122.046;2022-07-04T04:10:46;101100.97;;;14.94;77.47
66543;BME280;53395;37.360;-122.046;2022-07-04T04:13:13;101101.38;;;15.08;77.43
66543;BME280;53395;37.360;-122.046;2022-07-04T04:15:39;101110.25;;;15.06;77.45
66543;BME280;53395;37.360;-122.046;2022-07-04T04:18:05;101115.94;;;14.92;78.18
66543;BME280;53395;37.360;-122.046;2022-07-04T04:20:31;101115.06;;;14.91;78.57
66543;BME280;53395;37.360;-122.046;2022-07-04T04:22:58;101122.06;;;14.92;79.05
66543;BME280;53395;37.360;-122.046;2022-07-04T04:25:24;101118.25;;;14.73;79.58
66543;BME280;53395;37.360;-122.046;2022-07-04T04:27:50;101125.59;;;14.62;80.54
66543;BME280;53395;37.360;-122.046;2022-07-04T04:30:17;101135.00;;;14.70;80.55
66543;BME280;53395;37.360;-122.046;2022-07-04T04:32:43;101134.28;;;14.65;80.70
66543;BME280;53395;37.360;-122.046;2022-07-04T04:35:09;101138.00;;;14.86;80.08
66543;BME280;53395;37.360;-122.046;2022-07-04T04:37:35;101140.13;;;14.75;80.75
66543;BME280;53395;37.360;-122.046;2022-07-04T04:40:02;101142.03;;;14.70;80.82
66543;BME280;53395;37.360;-122.046;2022-07-04T04:42:28;101143.50;;;14.78;79.93
66543;BME280;53395;37.360;-122.046;2022-07-04T04:44:55;101140.25;;;14.70;80.96
66543;BME280;53395;37.360;-122.046;2022-07-04T04:47:22;101143.75;;;14.71;81.30
66543;BME280;53395;37.360;-122.046;2022-07-04T04:49:48;101143.34;;;14.85;80.24
66543;BME280;53395;37.360;-122.046;2022-07-04T04:52:14;101144.03;;;14.91;79.94
66543;BME280;53395;37.360;-122.046;2022-07-04T04:54:41;101139.44;;;14.68;81.13
66543;BME280;53395;37.360;-122.046;2022-07-04T04:57:07;101157.88;;;14.67;80.99
66543;BME280;53395;37.360;-122.046;2022-07-04T04:59:34;101156.31;;;14.91;80.68
66543;BME280;53395;37.360;-122.046;2022-07-04T05:02:00;101156.78;;;14.75;81.46
66543;BME280;53395;37.360;-122.046;2022-07-04T05:04:26;101149.03;;;14.69;81.18
66543;BME280;53395;37.360;-122.046;2022-07-04T05:06:53;101157.66;;;14.74;80.64
66543;BME280;53395;37.360;-122.046;2022-07-04T05:09:19;101157.72;;;14.42;82.08
66543;BME280;53395;37.360;-122.046;2022-07-04T05:11:46;101164.00;;;14.67;80.98
66543;BME280;53395;37.360;-122.046;2022-07-04T05:14:13;101151.38;;;14.49;81.53
66543;BME280;53395;37.360;-122.046;2022-07-04T05:16:40;101159.44;;;14.74;81.59
66543;BME280;53395;37.360;-122.046;2022-07-04T05:19:06;101168.53;;;14.62;81.77
66543;BME280;53395;37.360;-122.046;2022-07-04T05:21:32;101165.06;;;14.62;81.76
66543;BME280;53395;37.360;-122.046;2022-07-04T05:23:58;101168.16;;;14.76;82.18
66543;BME280;53395;37.360;-122.046;2022-07-04T05:26:25;101163.47;;;14.56;82.58
66543;BME280;53395;37.360;-122.046;2022-07-04T05:28:52;101162.03;;;14.44;82.20
66543;BME280;53395;37.360;-122.046;2022-07-04T05:31:18;101157.81;;;14.70;81.87
66543;BME280;53395;37.360;-122.046;2022-07-04T05:33:44;101159.94;;;14.57;82.23
66543;BME280;53395;37.360;-122.046;2022-07-04T05:36:10;101161.38;;;14.67;82.49
66543;BME280;53395;37.360;-122.046;2022-07-04T05:38:36;101159.59;;;14.36;83.46
66543;BME280;53395;37.360;-122.046;2022-07-04T05:41:03;101155.25;;;14.35;83.40
66543;BME280;53395;37.360;-122.046;2022-07-04T05:43:29;101156.09;;;14.36;83.72
66543;BME280;53395;37.360;-122.046;2022-07-04T05:45:55;101155.41;;;14.29;83.85
66543;BME280;53395;37.360;-122.046;2022-07-04T05:48:21;101156.66;;;14.47;83.32
66543;BME280;53395;37.360;-122.046;2022-07-04T05:50:48;101151.75;;;14.35;83.68
66543;BME280;53395;37.360;-122.046;2022-07-04T05:53:14;101155.00;;;14.45;83.69
66543;BME280;53395;37.360;-122.046;2022-07-04T05:55:40;101155.94;;;14.42;83.64
66543;BME280;53395;37.360;-122.046;2022-07-04T05:58:06;101164.53;;;14.49;83.85
66543;BME280;53395;37.360;-122.046;2022-07-04T06:00:33;101163.88;;;14.39;84.95
66543;BME280;53395;37.360;-122.046;2022-07-04T06:03:00;101160.47;;;14.37;85.15
66543;BME280;53395;37.360;-122.046;2022-07-04T06:05:26;101170.41;;;14.26;86.09
66543;BME280;53395;37.360;-122.046;2022-07-04T06:07:52;101157.78;;;14.06;86.07
66543;BME280;53395;37.360;-122.046;2022-07-04T06:10:18;101153.31;;;14.09;86.61
66543;BME280;53395;37.360;-122.046;2022-07-04T06:12:44;101148.09;;;14.08;86.37
66543;BME280;53395;37.360;-122.046;2022-07-04T06:15:11;101144.25;;;14.21;86.00
66543;BME280;53395;37.360;-122.046;2022-07-04T06:17:38;101147.03;;;14.15;86.28
66543;BME280;53395;37.360;-122.046;2022-07-04T06:20:04;101147.34;;;14.35;85.80
66543;BME280;53395;37.360;-122.046;2022-07-04T06:22:41;101151.94;;;14.27;86.13
66543;BME280;53395;37.360;-122.046;2022-07-04T06:25:15;101155.09;;;14.09;87.21
66543;BME280;53395;37.360;-122.046;2022-07-04T06:27:42;101159.56;;;14.05;87.67
66543;BME280;53395;37.360;-122.046;2022-07-04T06:30:10;101158.47;;;14.14;87.81
66543;BME280;53395;37.360;-122.046;2022-07-04T06:32:48;101150.03;;;14.01;88.40
66543;BME280;53395;37.360;-122.046;2022-07-04T06:35:20;101154.78;;;14.20;87.66
66543;BME280;53395;37.360;-122.046;2022-07-04T06:38:05;101158.78;;;14.02;88.98
66543;BME280;53395;37.360;-122.046;2022-07-04T06:40:31;101153.47;;;14.03;88.82
66543;BME280;53395;37.360;-122.046;2022-07-04T06:42:57;101147.69;;;13.90;89.73
66543;BME280;53395;37.360;-122.046;2022-07-04T06:45:24;101145.00;;;13.92;90.08
66543;BME280;53395;37.360;-122.046;2022-07-04T06:47:50;101154.84;;;13.85;90.32
66543;BME280;53395;37.360;-122.046;2022-07-04T06:50:16;101145.66;;;14.02;89.32
66543;BME280;53395;37.360;-122.046;2022-07-04T06:52:44;101150.56;;;13.80;90.93
66543;BME280;53395;37.360;-122.046;2022-07-04T06:55:10;101140.13;;;13.78;91.34
66543;BME280;53395;37.360;-122.046;2022-07-04T06:57:36;101132.91;;;13.86;90.15
66543;BME280;53395;37.360;-122.046;2022-07-04T07:00:05;101139.25;;;13.78;90.71
66543;BME280;53395;37.360;-122.046;2022-07-04T07:02:34;101134.09;;;13.73;90.61
66543;BME280;53395;37.360;-122.046;2022-07-04T07:05:01;101133.25;;;13.72;91.01
66543;BME280;53395;37.360;-122.046;2022-07-04T07:07:27;101137.13;;;13.58;91.80
66543;BME280;53395;37.360;-122.046;2022-07-04T07:09:54;101138.19;;;13.85;90.24
66543;BME280;53395;37.360;-122.046;2022-07-04T07:12:23;101138.13;;;13.52;92.28
66543;BME280;53395;37.360;-122.046;2022-07-04T07:14:50;101136.22;;;13.59;92.55
66543;BME280;53395;37.360;-122.046;2022-07-04T07:17:17;101130.72;;;13.69;91.53
66543;BME280;53395;37.360;-122.046;2022-07-04T07:19:43;101140.28;;;13.72;91.21
66543;BME280;53395;37.360;-122.046;2022-07-04T07:22:10;101132.81;;;13.55;92.25
66543;BME280;53395;37.360;-122.046;2022-07-04T07:24:37;101123.59;;;13.39;93.30
66543;BME280;53395;37.360;-122.046;2022-07-04T07:27:04;101130.59;;;13.38;93.68
66543;BME280;53395;37.360;-122.046;2022-07-04T07:29:31;101117.28;;;13.46;93.32
66543;BME280;53395;37.360;-122.046;2022-07-04T07:31:57;101126.63;;;13.58;92.34
66543;BME280;53395;37.360;-122.046;2022-07-04T07:34:24;101123.38;;;13.48;92.58
66543;BME280;53395;37.360;-122.046;2022-07-04T07:36:50;101124.53;;;13.70;91.94
66543;BME280;53395;37.360;-122.046;2022-07-04T07:39:17;101116.06;;;13.59;92.62
66543;BME280;53395;37.360;-122.046;2022-07-04T07:41:43;101121.16;;;13.65;92.28
66543;BME280;53395;37.360;-122.046;2022-07-04T07:44:09;101113.53;;;13.56;91.67
66543;BME280;53395;37.360;-122.046;2022-07-04T07:46:35;101122.38;;;13.52;92.60
66543;BME280;53395;37.360;-122.046;2022-07-04T07:49:01;101132.41;;;13.36;93.54
66543;BME280;53395;37.360;-122.046;2022-07-04T07:51:29;101127.09;;;13.38;93.25
66543;BME280;53395;37.360;-122.046;2022-07-04T07:53:55;101117.41;;;13.41;92.58
66543;BME280;53395;37.360;-122.046;2022-07-04T07:56:22;101112.03;;;13.46;91.51
66543;BME280;53395;37.360;-122.046;2022-07-04T07:58:49;101118.44;;;13.34;92.40
66543;BME280;53395;37.360;-122.046;2022-07-04T08:01:16;101115.25;;;13.20;92.10
66543;BME280;53395;37.360;-122.046;2022-07-04T08:03:42;101106.56;;;13.18;91.93
66543;BME280;53395;37.360;-122.046;2022-07-04T08:06:27;101110.00;;;13.20;91.74
66543;BME280;53395;37.360;-122.046;2022-07-04T08:08:53;101109.25;;;13.15;91.49
66543;BME280;53395;37.360;-122.046;2022-07-04T08:11:19;101118.13;;;13.09;91.91
66543;BME280;53395;37.360;-122.046;2022-07-04T08:13:46;101108.59;;;13.05;91.83
66543;BME280;53395;37.360;-122.046;2022-07-04T08:16:11;101112.47;;;13.27;90.12
66543;BME280;53395;37.360;-122.046;2022-07-04T08:18:38;101112.97;;;13.04;90.79
66543;BME280;53395;37.360;-122.046;2022-07-04T08:21:04;101112.56;;;13.21;89.75
66543;BME280;53395;37.360;-122.046;2022-07-04T08:23:32;101114.25;;;13.24;89.45
66543;BME280;53395;37.360;-122.046;2022-07-04T08:25:59;101124.28;;;13.08;89.60
66543;BME280;53395;37.360;-122.046;2022-07-04T08:28:27;101114.56;;;13.49;87.00
66543;BME280;53395;37.360;-122.046;2022-07-04T08:30:56;101119.88;;;13.10;89.57
66543;BME280;53395;37.360;-122.046;2022-07-04T08:33:23;101119.06;;;13.05;89.72
66543;BME280;53395;37.360;-122.046;2022-07-04T08:35:49;101120.53;;;13.18;89.38
66543;BME280;53395;37.360;-122.046;2022-07-04T08:38:16;101117.25;;;13.08;89.95
66543;BME280;53395;37.360;-122.046;2022-07-04T08:40:43;101113.72;;;13.09;89.66
66543;BME280;53395;37.360;-122.046;2022-07-04T08:43:13;101127.09;;;12.99;90.74
66543;BME280;53395;37.360;-122.046;2022-07-04T08:45:40;101119.69;;;13.18;89.67
66543;BME280;53395;37.360;-122.046;2022-07-04T08:48:08;101115.66;;;13.40;87.71
66543;BME280;53395;37.360;-122.046;2022-07-04T08:50:38;101115.44;;;13.49;88.06
66543;BME280;53395;37.360;-122.046;2022-07-04T08:53:15;101108.44;;;13.50;90.78
66543;BME280;53395;37.360;-122.046;2022-07-04T08:55:45;101114.03;;;13.70;88.59
66543;BME280;53395;37.360;-122.046;2022-07-04T08:58:31;101107.91;;;13.71;87.85
66543;BME280;53395;37.360;-122.046;2022-07-04T09:01:04;101106.38;;;13.61;88.06
66543;BME280;53395;37.360;-122.046;2022-07-04T09:03:31;101098.88;;;13.82;84.35
66543;BME280;53395;37.360;-122.046;2022-07-04T09:05:58;101096.63;;;13.99;83.25
66543;BME280;53395;37.360;-122.046;2022-07-04T09:08:24;101103.63;;;14.00;82.96
66543;BME280;53395;37.360;-122.046;2022-07-04T09:10:52;101102.53;;;14.09;84.36
66543;BME280;53395;37.360;-122.046;2022-07-04T09:13:19;101094.84;;;14.01;83.83
66543;BME280;53395;37.360;-122.046;2022-07-04T09:15:50;101098.97;;;14.10;82.92
66543;BME280;53395;37.360;-122.046;2022-07-04T09:18:22;101101.31;;;14.21;81.22
66543;BME280;53395;37.360;-122.046;2022-07-04T09:20:49;101092.63;;;14.19;81.43
66543;BME280;53395;37.360;-122.046;2022-07-04T09:23:23;101098.47;;;13.97;83.31
66543;BME280;53395;37.360;-122.046;2022-07-04T09:26:13;101097.09;;;14.15;82.04
66543;BME280;53395;37.360;-122.046;2022-07-04T09:28:43;101092.53;;;14.22;82.36
66543;BME280;53395;37.360;-122.046;2022-07-04T09:31:18;101089.63;;;14.31;82.12
66543;BME280;53395;37.360;-122.046;2022-07-04T09:33:56;101094.91;;;14.31;81.50
66543;BME280;53395;37.360;-122.046;2022-07-04T09:36:26;101091.16;;;14.40;81.03
66543;BME280;53395;37.360;-122.046;2022-07-04T09:39:11;101094.59;;;14.42;81.34
66543;BME280;53395;37.360;-122.046;2022-07-04T09:42:01;101090.72;;;14.55;80.54
66543;BME280;53395;37.360;-122.046;2022-07-04T09:44:44;101095.22;;;14.50;80.73
66543;BME280;53395;37.360;-122.046;2022-07-04T09:47:25;101090.91;;;14.47;80.69
66543;BME280;53395;37.360;-122.046;2022-07-04T09:50:03;101093.06;;;14.64;80.63
66543;BME280;53395;37.360;-122.046;2022-07-04T09:52:30;101094.06;;;14.60;80.35
66543;BME280;53395;37.360;-122.046;2022-07-04T09:55:01;101093.13;;;14.63;80.79
66543;BME280;53395;37.360;-122.046;2022-07-04T09:57:31;101087.84;;;14.63;80.71
66543;BME280;53395;37.360;-122.046;2022-07-04T10:02:43;101083.34;;;14.68;80.86
66543;BME280;53395;37.360;-122.046;2022-07-04T10:05:10;101081.56;;;14.68;80.92
66543;BME280;53395;37.360;-122.046;2022-07-04T10:07:38;101078.91;;;14.70;81.34
66543;BME280;53395;37.360;-122.046;2022-07-04T10:10:27;101085.19;;;14.64;81.82
66543;BME280;53395;37.360;-122.046;2022-07-04T10:13:02;101082.38;;;14.70;81.87
66543;BME280;53395;37.360;-122.046;2022-07-04T10:15:29;101081.97;;;14.54;82.58
66543;BME280;53395;37.360;-122.046;2022-07-04T10:17:55;101077.03;;;14.73;81.91
66543;BME280;53395;37.360;-122.046;2022-07-04T10:20:22;101078.38;;;14.87;81.37
66543;BME280;53395;37.360;-122.046;2022-07-04T10:22:48;101078.50;;;14.82;81.94
66543;BME280;53395;37.360;-122.046;2022-07-04T10:25:15;101082.59;;;14.63;83.50
66543;BME280;53395;37.360;-122.046;2022-07-04T10:27:41;101084.53;;;14.86;81.68
66543;BME280;53395;37.360;-122.046;2022-07-04T10:30:14;101086.13;;;14.91;82.08
66543;BME280;53395;37.360;-122.046;2022-07-04T10:32:44;101082.09;;;15.08;82.20
66543;BME280;53395;37.360;-122.046;2022-07-04T10:35:15;101085.91;;;14.97;83.90
66543;BME280;53395;37.360;-122.046;2022-07-04T10:38:01;101078.31;;;14.88;84.58
66543;BME280;53395;37.360;-122.046;2022-07-04T10:40:44;101081.16;;;15.10;84.04
66543;BME280;53395;37.360;-122.046;2022-07-04T10:48:32;101081.00;;;14.87;85.67
66543;BME280;53395;37.360;-122.046;2022-07-04T10:51:03;101080.50;;;15.02;84.80
66543;BME280;53395;37.360;-122.046;2022-07-04T10:53:31;101079.91;;;14.94;86.44
66543;BME280;53395;37.360;-122.046;2022-07-04T10:58:44;101072.75;;;14.97;85.70
66543;BME280;53395;37.360;-122.046;2022-07-04T11:01:11;101070.97;;;14.98;86.17
66543;BME280;53395;37.360;-122.046;2022-07-04T11:03:49;101056.56;;;15.10;85.31
66543;BME280;53395;37.360;-122.046;2022-07-04T11:11:58;101060.81;;;14.87;86.65
66543;BME280;53395;37.360;-122.046;2022-07-04T11:14:46;101071.34;;;14.87;86.53
66543;BME280;53395;37.360;-122.046;2022-07-04T11:17:13;101068.75;;;14.86;87.09
66543;BME280;53395;37.360;-122.046;2022-07-04T11:19:41;101070.56;;;14.84;86.54
66543;BME280;53395;37.360;-122.046;2022-07-04T11:22:09;101065.22;;;14.87;86.19
66543;BME280;53395;37.360;-122.046;2022-07-04T11:24:37;101061.00;;;14.81;86.67
66543;BME280;53395;37.360;-122.046;2022-07-04T11:27:07;101067.91;;;14.84;86.20
66543;BME280;53395;37.360;-122.046;2022-07-04T11:29:36;101061.00;;;14.81;86.53
66543;BME280;53395;37.360;-122.046;2022-07-04T11:32:04;101061.66;;;14.88;85.70
66543;BME280;53395;37.360;-122.046;2022-07-04T11:34:33;101061.66;;;14.88;85.68
66543;BME280;53395;37.360;-122.046;2022-07-04T11:36:59;101058.84;;;14.94;85.49
66543;BME280;53395;37.360;-122.046;2022-07-04T11:39:27;101053.97;;;14.82;85.72
66543;BME280;53395;37.360;-122.046;2022-07-04T11:41:54;101050.38;;;14.84;85.70
66543;BME280;53395;37.360;-122.046;2022-07-04T11:44:40;101059.84;;;14.90;85.48
66543;BME280;53395;37.360;-122.046;2022-07-04T11:47:31;101064.53;;;15.08;84.63
66543;BME280;53395;37.360;-122.046;2022-07-04T11:49:59;101063.97;;;14.98;85.09
66543;BME280;53395;37.360;-122.046;2022-07-04T11:52:31;101067.91;;;14.84;86.95
66543;BME280;53395;37.360;-122.046;2022-07-04T11:55:05;101064.69;;;15.04;85.45
66543;BME280;53395;37.360;-122.046;2022-07-04T11:57:40;101054.72;;;15.13;84.54
66543;BME280;53395;37.360;-122.046;2022-07-04T12:00:17;101050.94;;;15.22;84.24
66543;BME280;53395;37.360;-122.046;2022-07-04T12:02:45;101058.00;;;14.93;85.38
66543;BME280;53395;37.360;-122.046;2022-07-04T12:05:12;101060.22;;;15.06;84.95
66543;BME280;53395;37.360;-122.046;2022-07-04T12:07:40;101059.56;;;14.99;85.66
66543;BME280;53395;37.360;-122.046;2022-07-04T12:10:18;101055.03;;;15.02;85.44
66543;BME280;53395;37.360;-122.046;2022-07-04T12:12:59;101058.34;;;15.09;85.67
66543;BME280;53395;37.360;-122.046;2022-07-04T12:15:46;101053.59;;;15.20;84.83
66543;BME280;53395;37.360;-122.046;2022-07-04T12:18:21;101049.88;;;14.99;86.32
66543;BME280;53395;37.360;-122.046;2022-07-04T12:20:50;101047.53;;;14.90;86.70
66543;BME280;53395;37.360;-122.046;2022-07-04T12:23:18;101049.44;;;15.13;84.97
66543;BME280;53395;37.360;-122.046;2022-07-04T12:25:49;101059.44;;;15.02;85.60
66543;BME280;53395;37.360;-122.046;2022-07-04T12:28:18;101063.59;;;15.09;85.57
66543;BME280;53395;37.360;-122.046;2022-07-04T12:30:54;101066.25;;;15.09;85.15
66543;BME280;53395;37.360;-122.046;2022-07-04T12:33:23;101065.34;;;15.10;85.40
66543;BME280;53395;37.360;-122.046;2022-07-04T12:35:52;101065.44;;;15.07;85.01
66543;BME280;53395;37.360;-122.046;2022-07-04T12:38:34;101061.75;;;15.13;84.91
66543;BME280;53395;37.360;-122.046;2022-07-04T12:41:06;101053.78;;;15.14;85.01
66543;BME280;53395;37.360;-122.046;2022-07-04T12:46:07;101060.28;;;15.04;85.39